createdAt,value
2018-12-30T00:02:30.983Z,15.13
2018-12-30T00:05:04.419Z,16.57
2018-12-30T00:07:39.007Z,16.63
2018-12-30T00:10:15.560Z,20.23
2018-12-30T00:12:51.796Z,19.43
2018-12-30T00:15:28.278Z,21.17
2018-12-30T00:18:01.379Z,20.47
2018-12-30T00:20:36.317Z,15.57
2018-12-30T00:23:11.877Z,18.87
2018-12-30T00:25:47.451Z,16.60
2018-12-30T00:28:20.496Z,16.70
2018-12-30T00:30:54.319Z,16.23
2018-12-30T00:33:28.801Z,16.90
2018-12-30T00:36:05.515Z,13.03
2018-12-30T00:38:38.729Z,19.05
2018-12-30T00:41:18.892Z,14.40
2018-12-30T00:43:53.032Z,17.23
2018-12-30T00:46:25.929Z,25.57
2018-12-30T00:48:58.846Z,20.63
2018-12-30T00:51:32.284Z,18.37
2018-12-30T00:54:05.439Z,18.37
2018-12-30T00:56:38.406Z,15.00
2018-12-30T00:59:12.780Z,19.00
2018-12-30T01:01:46.652Z,22.47
2018-12-30T01:04:22.317Z,21.05
2018-12-30T01:06:59.245Z,19.77
2018-12-30T01:09:33.333Z,20.33
2018-12-30T01:12:06.195Z,18.37
2018-12-30T01:14:39.854Z,26.27
2018-12-30T01:17:12.832Z,22.73
2018-12-30T01:19:45.800Z,21.33
2018-12-30T01:22:19.560Z,20.77
2018-12-30T01:24:52.755Z,28.63
2018-12-30T01:27:25.993Z,26.33
2018-12-30T01:29:59.011Z,19.53
2018-12-30T01:32:33.404Z,24.08
2018-12-30T01:35:06.796Z,22.37
2018-12-30T01:37:39.848Z,24.27
2018-12-30T01:40:14.836Z,25.63
2018-12-30T01:42:47.856Z,29.17
2018-12-30T01:45:20.860Z,26.43
2018-12-30T01:47:56.344Z,26.73
2018-12-30T01:50:29.559Z,33.07
2018-12-30T01:53:03.523Z,23.77
2018-12-30T01:55:37.708Z,24.30
2018-12-30T01:58:10.787Z,24.05
2018-12-30T02:00:44.143Z,26.73
2018-12-30T02:03:17.491Z,23.43
2018-12-30T02:05:51.813Z,18.87
2018-12-30T02:08:24.975Z,17.33
2018-12-30T02:10:58.531Z,27.67
2018-12-30T02:13:32.497Z,20.33
2018-12-30T02:16:05.584Z,20.77
2018-12-30T02:18:42.038Z,26.53
2018-12-30T02:21:15.010Z,21.13
2018-12-30T02:23:49.817Z,22.47
2018-12-30T02:26:23.405Z,24.63
2018-12-30T02:28:56.333Z,22.30
2018-12-30T02:31:29.391Z,21.83
2018-12-30T02:34:02.843Z,22.80
2018-12-30T02:36:35.692Z,21.50
2018-12-30T02:39:08.533Z,12.83
2018-12-30T02:41:41.916Z,26.07
2018-12-30T02:44:16.621Z,23.30
2018-12-30T02:46:49.678Z,21.10
2018-12-30T02:49:23.114Z,27.33
2018-12-30T02:51:56.691Z,15.77
2018-12-30T02:54:29.649Z,24.63
2018-12-30T02:57:02.672Z,20.87
2018-12-30T02:59:35.568Z,21.17
2018-12-30T03:02:08.576Z,29.90
2018-12-30T03:04:41.357Z,15.97
2018-12-30T03:07:15.807Z,18.70
2018-12-30T03:09:48.743Z,20.00
2018-12-30T03:12:21.815Z,22.77
2018-12-30T03:14:56.157Z,20.30
2018-12-30T03:17:29.180Z,18.93
2018-12-30T03:20:02.965Z,21.90
2018-12-30T03:22:37.421Z,22.97
2018-12-30T03:25:14.776Z,24.90
2018-12-30T03:27:48.014Z,25.33
2018-12-30T03:30:22.911Z,20.57
2018-12-30T03:32:55.782Z,20.80
2018-12-30T03:35:29.280Z,19.77
2018-12-30T03:38:02.754Z,19.57
2018-12-30T03:40:35.790Z,20.93
2018-12-30T03:43:09.397Z,22.23
2018-12-30T03:45:42.635Z,23.80
2018-12-30T03:48:15.659Z,21.77
2018-12-30T03:50:48.432Z,19.43
2018-12-30T03:53:21.811Z,22.37
2018-12-30T03:55:55.312Z,23.80
2018-12-30T03:58:28.447Z,21.90
2018-12-30T04:01:01.926Z,17.40
2018-12-30T04:03:34.927Z,20.90
2018-12-30T04:06:07.883Z,15.47
2018-12-30T04:08:43.660Z,19.00
2018-12-30T04:11:16.482Z,17.37
2018-12-30T04:13:49.336Z,11.60
2018-12-30T04:16:22.720Z,25.40
2018-12-30T04:18:56.507Z,17.13
2018-12-30T04:21:29.505Z,18.30
2018-12-30T04:24:02.976Z,21.83
2018-12-30T04:26:35.850Z,21.07
2018-12-30T04:29:09.198Z,23.30
2018-12-30T04:31:42.692Z,18.63
2018-12-30T04:34:15.693Z,24.48
2018-12-30T04:36:48.940Z,22.03
2018-12-30T04:39:22.272Z,15.97
2018-12-30T04:41:55.537Z,20.03
2018-12-30T04:44:28.477Z,24.93
2018-12-30T04:47:02.830Z,20.60
2018-12-30T04:49:36.166Z,22.40
2018-12-30T04:52:08.988Z,16.53
2018-12-30T04:54:43.465Z,24.23
2018-12-30T04:57:16.488Z,23.30
2018-12-30T04:59:49.451Z,18.57
2018-12-30T05:02:23.212Z,15.33
2018-12-30T05:04:56.671Z,21.30
2018-12-30T05:07:29.560Z,15.80
2018-12-30T05:10:03.400Z,17.20
2018-12-30T05:12:36.425Z,24.20
2018-12-30T05:15:09.301Z,19.43
2018-12-30T05:17:43.751Z,18.60
2018-12-30T05:20:16.721Z,20.63
2018-12-30T05:22:49.689Z,20.92
2018-12-30T05:25:24.104Z,22.92
2018-12-30T05:27:56.916Z,20.97
2018-12-30T05:30:30.448Z,26.90
2018-12-30T05:33:05.468Z,19.70
2018-12-30T05:35:38.300Z,21.90
2018-12-30T05:38:11.111Z,19.27
2018-12-30T05:40:44.489Z,21.07
2018-12-30T05:43:17.290Z,25.40
2018-12-30T05:45:50.301Z,21.67
2018-12-30T05:48:24.440Z,24.50
2018-12-30T05:50:57.505Z,28.10
2018-12-30T05:53:30.476Z,19.90
2018-12-30T05:56:04.471Z,20.67
2018-12-30T05:58:37.848Z,23.00
2018-12-30T06:01:10.751Z,23.23
2018-12-30T06:03:45.128Z,21.03
2018-12-30T06:06:18.159Z,18.33
2018-12-30T06:08:51.816Z,23.93
2018-12-30T06:11:26.360Z,19.75
2018-12-30T06:13:59.168Z,20.43
2018-12-30T06:16:32.840Z,18.80
2018-12-30T06:19:07.920Z,30.77
2018-12-30T06:21:40.811Z,22.37
2018-12-30T06:24:13.768Z,21.83
2018-12-30T06:26:47.852Z,25.27
2018-12-30T06:29:26.001Z,26.60
2018-12-30T06:32:00.319Z,22.57
2018-12-30T06:34:33.697Z,23.50
2018-12-30T06:37:06.724Z,23.93
2018-12-30T06:39:39.683Z,23.57
2018-12-30T06:42:13.124Z,21.33
2018-12-30T06:44:46.045Z,22.13
2018-12-30T06:47:19.133Z,30.67
2018-12-30T06:49:52.441Z,28.70
2018-12-30T06:52:25.267Z,25.00
2018-12-30T06:54:58.392Z,20.40
2018-12-30T06:57:32.008Z,32.00
2018-12-30T07:00:08.009Z,27.00
2018-12-30T07:02:40.902Z,18.77
2018-12-30T07:05:14.267Z,22.53
2018-12-30T07:07:47.403Z,26.73
2018-12-30T07:10:20.240Z,25.13
2018-12-30T07:12:53.696Z,32.37
2018-12-30T07:15:27.319Z,23.03
2018-12-30T07:18:00.265Z,18.57
2018-12-30T07:20:33.612Z,20.80
2018-12-30T07:23:06.698Z,26.07
2018-12-30T07:25:39.676Z,20.80
2018-12-30T07:28:14.812Z,19.17
2018-12-30T07:30:50.252Z,27.23
2018-12-30T07:33:24.237Z,29.00
2018-12-30T07:35:58.137Z,36.37
2018-12-30T07:38:32.609Z,21.20
2018-12-30T07:41:06.466Z,24.83
2018-12-30T07:43:40.307Z,24.47
2018-12-30T07:46:13.425Z,20.37
2018-12-30T07:48:46.579Z,26.07
2018-12-30T07:51:19.861Z,21.07
2018-12-30T07:53:53.315Z,26.43
2018-12-30T07:56:26.107Z,21.43
2018-12-30T07:58:59.531Z,21.50
2018-12-30T08:01:32.474Z,21.67
2018-12-30T08:04:05.487Z,18.47
2018-12-30T08:06:39.921Z,24.60
2018-12-30T08:09:14.072Z,22.90
2018-12-30T08:11:47.728Z,23.57
2018-12-30T08:14:22.103Z,23.23
2018-12-30T08:16:56.509Z,22.80
2018-12-30T08:19:29.532Z,18.10
2018-12-30T08:22:03.862Z,19.70
2018-12-30T08:24:36.732Z,16.97
2018-12-30T08:27:11.669Z,17.97
2018-12-30T08:29:44.554Z,18.30
2018-12-30T08:32:19.107Z,19.33
2018-12-30T08:34:53.752Z,25.50
2018-12-30T08:37:26.637Z,17.50
2018-12-30T08:40:01.426Z,21.93
2018-12-30T08:42:42.149Z,20.63
2018-12-30T08:45:16.408Z,18.73
2018-12-30T08:47:49.792Z,19.80
2018-12-30T08:50:22.817Z,16.07
2018-12-30T08:52:55.756Z,28.67
2018-12-30T08:55:29.549Z,13.10
2018-12-30T08:58:05.503Z,23.80
2018-12-30T09:00:38.415Z,21.53
2018-12-30T09:03:13.108Z,22.17
2018-12-30T09:05:46.909Z,16.70
2018-12-30T09:08:19.893Z,16.33
2018-12-30T09:10:55.282Z,22.17
2018-12-30T09:13:28.305Z,18.17
2018-12-30T09:16:02.371Z,16.67
2018-12-30T09:18:35.861Z,23.15
2018-12-30T09:21:11.551Z,18.90
2018-12-30T09:23:45.409Z,20.03
2018-12-30T09:26:19.720Z,14.40
2018-12-30T09:28:52.697Z,22.80
2018-12-30T09:31:32.722Z,21.20
2018-12-30T09:34:07.276Z,18.33
2018-12-30T09:36:43.247Z,14.73
2018-12-30T09:39:17.993Z,19.03
2018-12-30T09:41:56.059Z,20.83
2018-12-30T09:44:36.868Z,17.30
2018-12-30T09:47:16.529Z,18.37
2018-12-30T09:49:59.629Z,15.73
2018-12-30T09:52:39.698Z,15.87
2018-12-30T09:55:13.603Z,14.63
2018-12-30T09:57:47.642Z,14.30
2018-12-30T10:00:21.171Z,14.40
2018-12-30T10:02:54.104Z,15.97
2018-12-30T10:05:27.379Z,16.37
2018-12-30T10:08:01.785Z,16.87
2018-12-30T10:10:36.002Z,17.27
2018-12-30T10:13:11.736Z,11.30
2018-12-30T10:15:47.200Z,15.67
2018-12-30T10:18:20.560Z,14.60
2018-12-30T10:20:53.703Z,15.03
2018-12-30T10:23:28.152Z,13.20
2018-12-30T10:26:01.134Z,17.17
2018-12-30T10:28:34.062Z,13.50
2018-12-30T10:31:08.511Z,13.13
2018-12-30T10:33:43.385Z,16.73
2018-12-30T10:36:17.040Z,13.43
2018-12-30T10:38:50.271Z,13.73
2018-12-30T10:41:24.006Z,18.37
2018-12-30T10:44:01.536Z,12.73
2018-12-30T10:46:37.680Z,14.83
2018-12-30T10:49:11.717Z,19.27
2018-12-30T10:51:45.612Z,15.30
2018-12-30T10:54:20.480Z,12.43
2018-12-30T10:56:53.620Z,17.30
2018-12-30T10:59:28.394Z,19.13
2018-12-30T11:02:01.450Z,16.20
2018-12-30T11:04:35.236Z,17.43
2018-12-30T11:07:09.149Z,20.70
2018-12-30T11:09:42.303Z,21.37
2018-12-30T11:12:15.236Z,12.60
2018-12-30T11:14:48.699Z,14.80
2018-12-30T11:17:23.529Z,16.70
2018-12-30T11:19:58.593Z,15.27
2018-12-30T11:22:39.663Z,16.57
2018-12-30T11:25:12.695Z,12.90
2018-12-30T11:27:47.239Z,13.63
2018-12-30T11:30:21.767Z,15.83
2018-12-30T11:32:55.588Z,15.43
2018-12-30T11:35:29.180Z,15.23
2018-12-30T11:38:05.101Z,12.87
2018-12-30T11:40:38.820Z,14.33
2018-12-30T11:43:12.002Z,9.57
2018-12-30T11:45:48.201Z,12.33
2018-12-30T11:48:22.085Z,14.40
2018-12-30T11:50:57.432Z,12.53
2018-12-30T11:53:34.551Z,16.60
2018-12-30T11:56:09.424Z,13.70
2018-12-30T11:58:44.196Z,13.80
2018-12-30T12:01:18.120Z,16.23
2018-12-30T12:03:54.087Z,17.13
2018-12-30T12:06:42.491Z,16.00
2018-12-30T12:09:16.276Z,24.37
2018-12-30T12:11:52.203Z,13.27
2018-12-30T12:14:28.903Z,20.57
2018-12-30T12:17:01.845Z,12.83
2018-12-30T12:19:35.467Z,12.07
2018-12-30T12:22:08.469Z,17.27
2018-12-30T12:24:42.764Z,16.27
2018-12-30T12:27:15.640Z,11.00
2018-12-30T12:29:48.755Z,13.23
2018-12-30T12:32:23.504Z,17.33
2018-12-30T12:34:57.475Z,15.80
2018-12-30T12:37:35.930Z,13.67
2018-12-30T12:40:10.546Z,22.90
2018-12-30T12:42:56.473Z,18.33
2018-12-30T12:45:34.182Z,15.53
2018-12-30T12:48:08.429Z,13.10
2018-12-30T12:50:43.770Z,14.13
2018-12-30T12:53:20.618Z,13.80
2018-12-30T12:55:58.818Z,15.87
2018-12-30T12:58:34.173Z,13.10
2018-12-30T13:01:17.959Z,16.80
2018-12-30T13:04:04.071Z,17.20
2018-12-30T13:06:47.427Z,17.77
2018-12-30T13:09:25.077Z,18.60
2018-12-30T13:12:08.897Z,19.20
2018-12-30T13:14:44.383Z,14.47
2018-12-30T13:17:19.120Z,17.93
2018-12-30T13:19:55.369Z,17.37
2018-12-30T13:22:28.937Z,14.77
2018-12-30T13:25:06.365Z,17.37
2018-12-30T13:27:41.140Z,17.93
2018-12-30T13:30:17.637Z,22.70
2018-12-30T13:32:50.680Z,16.10
2018-12-30T13:35:24.923Z,14.30
2018-12-30T13:37:58.492Z,21.30
2018-12-30T13:40:32.240Z,15.13
2018-12-30T13:43:07.366Z,16.17
2018-12-30T13:45:45.584Z,17.40
2018-12-30T13:48:19.369Z,21.37
2018-12-30T13:50:53.273Z,16.73
2018-12-30T13:53:29.807Z,16.40
2018-12-30T13:56:03.427Z,18.53
2018-12-30T13:58:37.045Z,19.33
2018-12-30T14:01:11.772Z,18.73
2018-12-30T14:03:49.576Z,21.77
2018-12-30T14:06:22.706Z,19.30
2018-12-30T14:08:58.747Z,15.13
2018-12-30T14:11:34.148Z,21.57
2018-12-30T14:14:07.254Z,19.13
2018-12-30T14:16:42.660Z,11.43
2018-12-30T14:19:16.215Z,19.90
2018-12-30T14:21:51.493Z,20.53
2018-12-30T14:24:24.918Z,21.03
2018-12-30T14:27:00.005Z,22.60
2018-12-30T14:29:36.234Z,23.23
2018-12-30T14:32:11.506Z,21.30
2018-12-30T14:34:47.272Z,23.70
2018-12-30T14:37:22.160Z,17.57
2018-12-30T14:39:55.246Z,24.47
2018-12-30T14:42:30.263Z,19.00
2018-12-30T14:45:06.787Z,21.17
2018-12-30T14:47:43.498Z,22.00
2018-12-30T14:50:18.878Z,24.07
2018-12-30T14:52:52.330Z,22.57
2018-12-30T14:55:25.296Z,22.40
2018-12-30T14:57:58.455Z,16.70
2018-12-30T15:00:34.157Z,16.90
2018-12-30T15:03:07.238Z,26.67
2018-12-30T15:05:40.562Z,18.27
2018-12-30T15:08:14.925Z,18.77
2018-12-30T15:10:52.171Z,18.53
2018-12-30T15:13:32.847Z,22.20
2018-12-30T15:16:05.715Z,27.60
2018-12-30T15:18:39.425Z,18.92
2018-12-30T15:21:16.738Z,17.53
2018-12-30T15:23:51.824Z,19.37
2018-12-30T15:26:25.916Z,25.27
2018-12-30T15:29:00.743Z,19.57
2018-12-30T15:31:33.734Z,23.00
2018-12-30T15:34:07.700Z,19.40
2018-12-30T15:36:43.061Z,18.77
2018-12-30T15:39:17.262Z,19.70
2018-12-30T15:41:52.213Z,20.80
2018-12-30T15:44:27.264Z,16.63
2018-12-30T15:47:01.628Z,19.70
2018-12-30T15:49:35.158Z,21.37
2018-12-30T15:52:12.267Z,16.67
2018-12-30T15:54:46.898Z,26.57
2018-12-30T15:57:23.494Z,20.20
2018-12-30T16:00:00.964Z,12.53
2018-12-30T16:02:39.677Z,16.30
2018-12-30T16:05:41.196Z,14.77
2018-12-30T16:08:23.836Z,15.63
2018-12-30T16:11:11.878Z,18.60
2018-12-30T16:14:13.993Z,19.23
2018-12-30T16:16:54.145Z,25.47
2018-12-30T16:19:28.530Z,25.33
2018-12-30T16:22:06.223Z,31.07
2018-12-30T16:24:42.398Z,25.40
2018-12-30T16:27:17.569Z,28.97
2018-12-30T16:29:52.379Z,22.00
2018-12-30T16:32:27.183Z,24.97
2018-12-30T16:35:00.182Z,29.23
2018-12-30T16:37:35.746Z,34.03
2018-12-30T16:40:11.472Z,27.60
2018-12-30T16:42:47.461Z,33.30
2018-12-30T16:45:22.110Z,27.50
2018-12-30T16:47:55.132Z,30.50
2018-12-30T16:50:28.375Z,34.97
2018-12-30T16:53:03.436Z,39.83
2018-12-30T16:55:36.278Z,32.43
2018-12-30T16:58:13.829Z,43.03
2018-12-30T17:00:48.152Z,40.17
2018-12-30T17:03:21.652Z,48.17
2018-12-30T17:05:57.262Z,45.33
2018-12-30T17:08:30.293Z,52.65
2018-12-30T17:11:06.716Z,56.35
2018-12-30T17:13:40.233Z,51.23
2018-12-30T17:16:14.023Z,46.30
2018-12-30T17:18:55.800Z,49.63
2018-12-30T17:21:29.832Z,61.97
2018-12-30T17:24:05.246Z,49.00
2018-12-30T17:26:39.567Z,55.47
2018-12-30T17:29:13.619Z,61.20
2018-12-30T17:31:47.190Z,55.67
2018-12-30T17:34:23.109Z,64.17
2018-12-30T17:36:57.360Z,66.73
2018-12-30T17:39:30.721Z,62.20
2018-12-30T17:42:05.199Z,71.20
2018-12-30T17:44:38.544Z,71.57
2018-12-30T17:47:11.542Z,66.87
2018-12-30T17:49:45.426Z,73.00
2018-12-30T17:52:20.103Z,88.57
2018-12-30T17:54:53.102Z,81.20
2018-12-30T17:57:26.794Z,85.17
2018-12-30T18:00:00.001Z,90.83
2018-12-30T18:02:33.454Z,103.67
2018-12-30T18:05:09.130Z,104.90
2018-12-30T18:07:43.033Z,102.90
2018-12-30T18:10:18.613Z,105.93
2018-12-30T18:12:53.980Z,109.27
2018-12-30T18:15:28.832Z,108.73
2018-12-30T18:18:05.865Z,105.87
2018-12-30T18:20:40.435Z,113.07
2018-12-30T18:23:15.600Z,116.13
2018-12-30T18:25:49.546Z,124.57
2018-12-30T18:28:24.297Z,128.07
2018-12-30T18:31:02.567Z,117.60
2018-12-30T18:33:36.420Z,135.07
2018-12-30T18:36:09.350Z,118.60
2018-12-30T18:38:44.474Z,133.17
2018-12-30T18:41:17.531Z,123.37
2018-12-30T18:43:52.513Z,115.37
2018-12-30T18:46:26.864Z,116.43
2018-12-30T18:48:59.803Z,109.83
2018-12-30T18:51:34.336Z,124.47
2018-12-30T18:54:13.133Z,113.40
2018-12-30T18:56:47.602Z,110.37
2018-12-30T18:59:21.038Z,104.43
2018-12-30T19:01:55.895Z,117.50
2018-12-30T19:04:29.493Z,129.77
2018-12-30T19:07:04.457Z,109.80
2018-12-30T19:09:39.065Z,104.90
2018-12-30T19:12:12.243Z,100.43
2018-12-30T19:14:46.387Z,122.93
2018-12-30T19:17:21.832Z,117.18
2018-12-30T19:19:56.041Z,93.47
2018-12-30T19:22:33.475Z,102.57
2018-12-30T19:25:07.075Z,96.27
2018-12-30T19:27:41.129Z,103.93
2018-12-30T19:30:16.812Z,84.30
2018-12-30T19:32:51.301Z,102.40
2018-12-30T19:35:25.341Z,104.57
2018-12-30T19:37:59.929Z,97.80
2018-12-30T19:40:33.891Z,106.63
2018-12-30T19:43:06.919Z,112.60
2018-12-30T19:45:40.569Z,116.43
2018-12-30T19:48:14.248Z,130.57
2018-12-30T19:50:53.899Z,160.40
2018-12-30T19:53:29.263Z,136.37
2018-12-30T19:56:04.758Z,143.13
2018-12-30T19:58:38.802Z,152.87
2018-12-30T20:01:13.178Z,185.50
2018-12-30T20:03:47.986Z,163.17
2018-12-30T20:06:22.938Z,177.07
2018-12-30T20:08:56.531Z,144.73
2018-12-30T20:11:29.803Z,146.47
2018-12-30T20:14:05.835Z,179.27
2018-12-30T20:16:41.225Z,178.40
2018-12-30T20:19:15.680Z,187.53
2018-12-30T20:21:50.890Z,228.67
2018-12-30T20:24:32.836Z,188.43
2018-12-30T20:27:13.817Z,201.10
2018-12-30T20:29:50.712Z,294.60
2018-12-30T20:32:28.585Z,166.37
2018-12-30T20:35:19.881Z,181.67
2018-12-30T20:37:58.281Z,131.97
2018-12-30T20:40:34.716Z,121.70
2018-12-30T20:43:19.973Z,107.17
2018-12-30T20:45:59.382Z,116.13
2018-12-30T20:48:36.516Z,87.03
2018-12-30T20:51:11.890Z,93.50
2018-12-30T20:53:48.622Z,102.47
2018-12-30T20:56:23.566Z,112.17
2018-12-30T20:59:03.926Z,98.73
2018-12-30T21:01:40.788Z,117.40
2018-12-30T21:04:18.195Z,103.13
2018-12-30T21:06:54.382Z,99.77
2018-12-30T21:09:33.310Z,129.40
2018-12-30T21:12:10.612Z,96.80
2018-12-30T21:14:47.521Z,99.97
2018-12-30T21:17:24.608Z,85.23
2018-12-30T21:19:59.706Z,90.90
2018-12-30T21:22:35.426Z,104.00
2018-12-30T21:25:34.289Z,80.03
2018-12-30T21:28:13.854Z,82.07
2018-12-30T21:30:48.436Z,98.83
2018-12-30T21:33:24.868Z,79.30
2018-12-30T21:36:03.294Z,74.40
2018-12-30T21:38:40.563Z,82.97
2018-12-30T21:41:20.950Z,78.77
2018-12-30T21:44:03.715Z,108.07
2018-12-30T21:46:43.652Z,98.93
2018-12-30T21:49:24.632Z,117.13
2018-12-30T21:52:08.569Z,117.07
2018-12-30T21:55:04.171Z,128.53
2018-12-30T21:57:41.143Z,144.37
2018-12-30T22:00:19.380Z,184.07
2018-12-30T22:02:56.918Z,108.50
2018-12-30T22:05:33.564Z,111.67
2018-12-30T22:08:13.295Z,127.33
2018-12-30T22:10:51.989Z,250.57
2018-12-30T22:13:32.936Z,113.13
2018-12-30T22:16:10.258Z,131.70
2018-12-30T22:18:47.884Z,131.02
2018-12-30T22:21:21.820Z,125.33
2018-12-30T22:23:56.809Z,112.10
2018-12-30T22:26:31.037Z,91.57
2018-12-30T22:29:11.232Z,110.47
2018-12-30T22:31:45.475Z,110.63
2018-12-30T22:34:31.656Z,96.13
2018-12-30T22:37:09.791Z,100.83
2018-12-30T22:39:47.898Z,110.93
2018-12-30T22:42:22.104Z,86.37
2018-12-30T22:44:56.036Z,128.57
2018-12-30T22:47:29.598Z,171.07
2018-12-30T22:50:04.840Z,95.60
2018-12-30T22:52:38.627Z,118.17
2018-12-30T22:55:18.596Z,214.80
2018-12-30T22:57:54.700Z,166.87
2018-12-30T23:00:36.685Z,137.70
2018-12-30T23:03:12.758Z,128.27
2018-12-30T23:05:48.706Z,140.70
2018-12-30T23:08:24.330Z,185.00
2018-12-30T23:11:00.982Z,112.57
2018-12-30T23:13:34.279Z,147.47
2018-12-30T23:16:08.592Z,96.30
2018-12-30T23:18:46.449Z,118.70
2018-12-30T23:21:20.125Z,127.17
2018-12-30T23:23:53.797Z,115.20
2018-12-30T23:26:27.160Z,114.70
2018-12-30T23:29:01.101Z,86.63
2018-12-30T23:31:35.591Z,106.90
2018-12-30T23:34:08.672Z,150.75
2018-12-30T23:36:41.525Z,85.57
2018-12-30T23:39:14.935Z,138.07
2018-12-30T23:41:48.490Z,103.13
2018-12-30T23:44:22.885Z,169.87
2018-12-30T23:46:56.115Z,114.00
2018-12-30T23:49:29.413Z,334.73
2018-12-30T23:52:03.275Z,424.37
2018-12-30T23:54:37.084Z,252.27
2018-12-30T23:57:11.201Z,396.90
2018-12-30T23:59:44.172Z,407.77
